Pompano Beach, FL

6:32 PM EDT on August 31, 2016 (GMT -0400)
Crystal Lake | | Change Station

Elev 14 ft 26.29 °N, 80.14 °W | Updated 2 seconds ago

Partly Cloudy
Partly Cloudy
85.5 °F
Feels Like 109 °F
N
3.4
Wind Variable Wind from South
Gusts 4.9 mph

Today
High -- | Low -- °F
--% Chance of Precip.
Yesterday
High -- | Low -- °F
Precip. -- in
Pressure 29.91 in
Visibility 10.0 miles
Clouds Few 1700 ft
Heat Index 109 °F
Dew Point 85 °F
Humidity 99%
Rainfall 0.00 in
Snow Depth Not available.
7:00 AM 7:40 PM
Waning Crescent, 0% visible
METAR KPMP 312153Z 15014KT 10SM FEW017 29/26 A2991 RMK AO2 SLP128 T02890256
Pressure 29.91 in
Visibility 10.0 miles
Clouds Few 1700 ft
Heat Index 109 °F
Dew Point 85 °F
Humidity 99%
Rainfall 0.00 in
Snow Depth Not available.
7:00 AM 7:40 PM
Waning Crescent, 0% visible
METAR KPMP 312153Z 15014KT 10SM FEW017 29/26 A2991 RMK AO2 SLP128 T02890256

10-Day Weather Forecast

Almanac

Astronomy

Aug. 31, 2016 Rise Set
Actual Time
Civil Twilight
Nautical Twilight
Astronomical Twilight
Moon
Length of Visible Light
Length of Day
Tomorrow will be .
, % of the Moon is Illuminated

Today's Extremes

State Highs State Lows

Community

WunderPhotos

Upload Photos

1,936,203 photos uploaded!

WunderBlog® & News

Nearby

Air Quality

  Air Quality AQ Index Pollutant
Not available.

Snow Depth

Station Depth Elevation

Earthquake Activity

City Distance Mag. Time & Date
Minimum magnitude displayed is 2.5.

Coastal Water Temperatures

Place Temperature

Stations

Nearby Weather Stations

Station Location Temp. Windchill Dew Point Humidity Wind Precip. Elev Updated Type
                   

Watches & Warnings

There are currently no watches in effect.